Amo, Colorado
Current Conditions -  °F | °C
As of 8:53 AM on Saturday 25 Oct 2014 (Local Time) from KFLY Reporting Station
Clear Clear  
Wind Chill: 64°   Ceiling: Unl
Heat Index: 64°   Visibility: 10mi
Dew Point: 14°   Wind: 7mph
Humidity: 15%   Direction: 350°N
Pressure: 30.34"   Gusts: NA
Location:  39.0051°N, 104.503°W
Report Text: KFLY 251453Z AUTO 35006KT 10SM CLR 18/M10 A3034 RMK AO2 T01751099
Loading
Personal Weather Stations






























Interactive Weather Map
Tropical Storm Tracking
New forecast layout! Learn more

10-Day Weather Forecast

Advertisements
Track Severe Weather on mobile